Time;durP1;ratioP1;P1;durP2;ratioP2;P2;SDS_P1;SDS_P2;PMS_P1;PMS_P2;Temp;Humidity;BMP_temperature;BMP_pressure;BME280_temperature;BME280_humidity;BME280_pressure;Samples;Min_cycle;Max_cycle;Signal;HPM_P1;HPM_P2
2022/05/15 00:02:08;;;;;;;3.90;3.60;;;16.60;99.90;;;;;;5064690;28;20382;-81
2022/05/15 00:04:52;;;;;;;5.50;4.43;;;16.60;99.90;;;;;;5065134;28;20487;-81
2022/05/15 00:07:37;;;;;;;7.57;4.17;;;16.50;99.90;;;;;;5049546;28;21041;-81
2022/05/15 00:10:22;;;;;;;4.57;3.83;;;16.50;99.90;;;;;;5049527;28;20448;-79
2022/05/15 00:13:07;;;;;;;5.83;4.67;;;16.50;99.90;;;;;;5029911;28;20457;-81
2022/05/15 00:15:52;;;;;;;7.73;4.80;;;16.40;99.90;;;;;;5043367;28;20907;-81
2022/05/15 00:18:38;;;;;;;4.50;4.10;;;16.50;99.90;;;;;;5043457;28;20806;-82
2022/05/15 00:21:26;;;;;;;9.57;3.70;;;16.50;99.90;;;;;;5043195;28;20395;-82
2022/05/15 00:24:11;;;;;;;4.07;3.73;;;16.40;99.90;;;;;;5043045;28;20802;-81
2022/05/15 00:26:56;;;;;;;7.33;4.03;;;16.40;99.90;;;;;;5044068;28;20533;-82
2022/05/15 00:29:41;;;;;;;4.53;3.70;;;16.40;99.90;;;;;;5044282;28;20796;-81
2022/05/15 00:32:25;;;;;;;11.70;4.87;;;16.40;99.90;;;;;;5044725;28;20477;-80
2022/05/15 00:35:10;;;;;;;6.10;3.57;;;16.30;99.90;;;;;;5044745;28;20778;-81
2022/05/15 00:37:55;;;;;;;7.97;3.50;;;16.30;99.90;;;;;;5030499;28;20529;-82
2022/05/15 00:40:42;;;;;;;5.03;3.43;;;16.30;99.90;;;;;;5043513;28;20398;-81
2022/05/15 00:43:42;;;;;;;4.70;4.00;;;16.30;99.90;;;;;;5050775;28;20453;-80
2022/05/15 00:46:30;;;;;;;8.57;3.80;;;16.20;99.90;;;;;;5066885;28;20412;-80
2022/05/15 00:49:15;;;;;;;4.70;4.13;;;16.20;99.90;;;;;;5037974;28;20398;-82
2022/05/15 00:52:04;;;;;;;15.40;3.83;;;16.20;99.90;;;;;;5069887;28;20382;-78
2022/05/15 00:54:55;;;;;;;7.10;5.27;;;16.20;99.90;;;;;;5040953;28;20414;-80
2022/05/15 00:57:49;;;;;;;9.73;3.03;;;16.10;99.90;;;;;;5068383;28;20382;-81
2022/05/15 01:00:34;;;;;;;3.83;3.50;;;16.10;99.90;;;;;;5050035;28;20405;-83
2022/05/15 01:03:21;;;;;;;5.63;5.03;;;16.00;99.90;;;;;;5048779;28;20446;-82
2022/05/15 01:06:08;;;;;;;5.77;4.50;;;16.00;99.90;;;;;;5064406;28;20474;-81
2022/05/15 01:08:56;;;;;;;7.30;3.50;;;16.00;99.90;;;;;;5046052;28;20446;-81
2022/05/15 01:11:44;;;;;;;4.50;4.10;;;15.90;99.90;;;;;;5043412;28;20388;-82
2022/05/15 01:14:28;;;;;;;4.10;3.20;;;15.90;99.90;;;;;;5043034;28;20390;-82
2022/05/15 01:17:13;;;;;;;4.33;3.63;;;15.80;99.90;;;;;;5043076;28;20457;-82
2022/05/15 01:20:06;;;;;;;5.17;4.10;;;15.90;99.90;;;;;;5052872;28;20437;-78
2022/05/15 01:22:52;;;;;;;3.80;3.30;;;15.90;99.90;;;;;;5026079;28;20414;-78
2022/05/15 01:25:37;;;;;;;14.83;4.10;;;15.90;99.90;;;;;;5025841;28;20415;-78
2022/05/15 01:28:37;;;;;;;4.93;3.90;;;15.80;99.90;;;;;;5053283;28;20383;-77
2022/05/15 01:31:21;;;;;;;7.80;4.20;;;15.70;99.90;;;;;;5022819;28;20395;-81
2022/05/15 01:34:09;;;;;;;5.10;3.97;;;15.70;99.90;;;;;;5028921;28;20391;-82
2022/05/15 01:36:54;;;;;;;4.40;4.00;;;15.60;99.90;;;;;;5043445;28;20386;-82
2022/05/15 01:39:39;;;;;;;5.70;4.00;;;15.60;99.90;;;;;;5029859;28;20391;-81
2022/05/15 01:42:24;;;;;;;4.27;3.97;;;15.60;99.90;;;;;;5035637;28;20467;-80
2022/05/15 01:45:09;;;;;;;4.37;3.97;;;15.50;99.90;;;;;;5032871;28;20410;-81
2022/05/15 01:47:54;;;;;;;5.10;4.63;;;15.50;99.90;;;;;;5032999;28;20430;-80
2022/05/15 01:50:38;;;;;;;5.63;4.10;;;15.50;99.90;;;;;;5044188;28;20386;-80
2022/05/15 01:53:23;;;;;;;4.90;3.87;;;15.50;99.90;;;;;;5046188;28;20434;-77
2022/05/15 01:56:08;;;;;;;8.80;4.80;;;15.50;99.90;;;;;;5032850;28;20450;-81
2022/05/15 01:58:52;;;;;;;4.67;3.30;;;15.50;99.90;;;;;;5042821;28;20493;-81
2022/05/15 02:01:56;;;;;;;4.40;3.57;;;15.40;99.90;;;;;;5040100;28;20438;-81
2022/05/15 02:04:41;;;;;;;5.10;4.60;;;15.50;99.90;;;;;;5027238;28;20437;-82
2022/05/15 02:07:26;;;;;;;10.43;4.97;;;15.50;99.90;;;;;;5047025;28;20545;-81
2022/05/15 02:10:11;;;;;;;6.90;4.70;;;15.50;99.90;;;;;;5061528;28;20389;-82
2022/05/15 02:12:59;;;;;;;6.20;4.20;;;15.50;99.90;;;;;;5062539;28;20543;-82
2022/05/15 02:15:44;;;;;;;4.77;4.27;;;15.40;99.90;;;;;;5018863;28;20385;-82
2022/05/15 02:18:28;;;;;;;7.40;4.33;;;15.40;99.90;;;;;;5060787;28;20401;-81
2022/05/15 02:21:13;;;;;;;5.80;5.30;;;15.40;99.90;;;;;;5060838;28;20382;-82
2022/05/15 02:24:01;;;;;;;10.10;5.87;;;15.40;99.90;;;;;;5059755;28;20449;-82
2022/05/15 02:26:45;;;;;;;8.50;5.90;;;15.40;99.90;;;;;;5060512;28;20436;-82
2022/05/15 02:29:35;;;;;;;6.33;4.00;;;15.40;99.90;;;;;;5045434;28;20386;-82
2022/05/15 02:32:20;;;;;;;14.37;5.20;;;15.40;99.90;;;;;;5060860;28;20382;-82
2022/05/15 02:35:06;;;;;;;5.23;4.73;;;15.40;99.90;;;;;;5060897;28;20890;-82
2022/05/15 02:37:50;;;;;;;5.27;4.00;;;15.40;99.90;;;;;;5038455;28;20474;-82
2022/05/15 02:40:35;;;;;;;6.70;4.60;;;15.30;99.90;;;;;;5054596;28;20403;-81
2022/05/15 02:43:20;;;;;;;4.80;4.33;;;15.20;99.90;;;;;;5061498;28;20820;-80
2022/05/15 02:46:04;;;;;;;4.53;4.13;;;15.10;99.90;;;;;;5047569;28;20397;-82
2022/05/15 02:51:50;;;;;;;6.90;4.57;;;15.10;99.90;;;;;;5050117;28;20386;-80
2022/05/15 02:54:35;;;;;;;4.47;3.73;;;15.20;99.90;;;;;;5063939;28;20470;-81
2022/05/15 02:57:20;;;;;;;4.43;3.90;;;15.20;99.90;;;;;;5067372;28;20429;-79
2022/05/15 03:00:05;;;;;;;5.93;5.17;;;15.20;99.90;;;;;;5050620;28;20394;-78
2022/05/15 03:02:50;;;;;;;6.00;4.23;;;15.10;99.90;;;;;;5067210;28;20450;-78
2022/05/15 03:05:34;;;;;;;6.57;4.43;;;15.10;99.90;;;;;;5067478;28;20453;-80
2022/05/15 03:08:19;;;;;;;5.83;4.17;;;15.10;99.90;;;;;;5055951;28;20461;-78
2022/05/15 03:11:04;;;;;;;5.60;4.90;;;15.10;99.90;;;;;;5057235;28;20925;-77
2022/05/15 03:13:48;;;;;;;5.10;4.60;;;15.00;99.90;;;;;;5057685;28;20429;-80
2022/05/15 03:16:33;;;;;;;4.70;4.20;;;15.00;99.90;;;;;;5073963;28;20377;-78
2022/05/15 03:19:18;;;;;;;4.30;4.00;;;15.00;99.90;;;;;;5074876;28;20750;-77
2022/05/15 03:22:03;;;;;;;10.80;4.53;;;15.00;99.90;;;;;;5060461;28;20780;-78
2022/05/15 03:24:49;;;;;;;6.47;4.33;;;15.00;99.90;;;;;;5075079;28;20452;-78
2022/05/15 03:27:34;;;;;;;6.90;5.27;;;15.00;99.90;;;;;;5075383;28;20411;-77
2022/05/15 03:30:19;;;;;;;5.00;4.47;;;15.00;99.90;;;;;;5061830;28;20389;-78
2022/05/15 03:33:08;;;;;;;4.80;4.40;;;14.80;99.90;;;;;;5062642;28;20405;-78
2022/05/15 03:35:52;;;;;;;6.43;4.73;;;14.70;99.90;;;;;;5077517;28;20462;-81
2022/05/15 03:38:38;;;;;;;5.37;4.83;;;14.80;99.90;;;;;;5078729;28;20397;-80
2022/05/15 03:41:22;;;;;;;10.97;5.60;;;14.80;99.90;;;;;;5055987;28;20417;-80
2022/05/15 03:44:08;;;;;;;5.83;5.00;;;14.80;99.90;;;;;;5070573;28;20471;-82
2022/05/15 03:46:52;;;;;;;5.93;4.87;;;14.80;99.90;;;;;;5050050;28;20456;-78
2022/05/15 03:49:37;;;;;;;6.13;4.80;;;14.70;99.90;;;;;;5076418;28;20420;-79
2022/05/15 03:52:22;;;;;;;8.07;5.20;;;14.70;99.90;;;;;;5074647;28;20390;-80
2022/05/15 03:55:07;;;;;;;8.17;5.00;;;14.70;99.90;;;;;;5074707;28;20422;-81
2022/05/15 03:57:55;;;;;;;13.63;4.93;;;14.80;99.90;;;;;;5076234;28;20386;-80
2022/05/15 04:00:41;;;;;;;4.90;4.43;;;14.70;99.90;;;;;;5068742;28;20495;-79
2022/05/15 04:03:26;;;;;;;9.90;4.73;;;14.80;99.90;;;;;;5077503;28;20441;-78
2022/05/15 04:06:10;;;;;;;5.80;5.30;;;14.70;99.90;;;;;;5060350;28;20413;-82
2022/05/15 04:08:55;;;;;;;6.83;4.80;;;14.80;99.90;;;;;;5057703;28;20504;-79
2022/05/15 04:11:40;;;;;;;6.03;5.37;;;14.80;99.90;;;;;;5021949;28;20383;-80
2022/05/15 04:14:25;;;;;;;13.00;5.83;;;14.80;99.90;;;;;;5064091;28;20456;-80
2022/05/15 04:17:09;;;;;;;6.87;5.23;;;14.80;99.90;;;;;;5048498;28;20441;-80
2022/05/15 04:20:02;;;;;;;8.00;5.23;;;14.90;99.90;;;;;;5049402;28;20457;-80
2022/05/15 04:22:47;;;;;;;8.80;5.23;;;14.90;99.90;;;;;;5064145;28;20414;-80
2022/05/15 04:25:31;;;;;;;7.00;5.00;;;14.90;99.90;;;;;;5064927;28;20939;-80
2022/05/15 04:28:16;;;;;;;6.70;5.23;;;14.90;99.90;;;;;;5049106;28;20383;-82
2022/05/15 04:31:00;;;;;;;7.00;5.40;;;15.10;99.90;;;;;;5063602;28;20451;-82
2022/05/15 04:33:44;;;;;;;7.00;5.33;;;15.00;99.90;;;;;;5063833;28;20422;-81
2022/05/15 04:36:29;;;;;;;5.43;4.90;;;15.00;99.90;;;;;;5048869;28;20505;-82
2022/05/15 04:39:13;;;;;;;6.70;5.20;;;15.00;99.90;;;;;;5064654;28;20414;-81
2022/05/15 04:42:00;;;;;;;13.90;5.73;;;15.10;99.90;;;;;;5064608;28;20385;-79
2022/05/15 04:44:45;;;;;;;8.77;5.70;;;15.20;99.90;;;;;;5062695;28;20508;-81
2022/05/15 04:47:29;;;;;;;10.50;6.87;;;15.20;99.90;;;;;;5062925;28;20902;-81
2022/05/15 04:50:15;;;;;;;6.67;5.73;;;15.10;99.90;;;;;;5047931;28;20447;-81
2022/05/15 04:53:00;;;;;;;8.93;5.93;;;15.10;99.90;;;;;;5063014;28;20386;-82
2022/05/15 04:55:44;;;;;;;7.50;5.37;;;15.20;99.90;;;;;;5063151;28;20409;-81
2022/05/15 04:58:28;;;;;;;8.70;5.80;;;15.30;99.90;;;;;;5048430;28;20445;-81
2022/05/15 05:01:13;;;;;;;8.20;6.60;;;15.30;99.90;;;;;;5050043;28;20462;-81
2022/05/15 05:03:58;;;;;;;7.30;5.80;;;15.30;99.90;;;;;;5049016;28;20445;-81
2022/05/15 05:06:42;;;;;;;7.30;5.67;;;15.40;99.90;;;;;;5063280;28;20453;-81
2022/05/15 05:09:27;;;;;;;6.70;4.60;;;15.50;99.90;;;;;;5050926;28;20402;-82
2022/05/15 05:12:11;;;;;;;10.17;5.90;;;15.50;99.90;;;;;;5052296;28;20451;-80
2022/05/15 05:14:58;;;;;;;5.70;5.10;;;15.50;99.90;;;;;;5057150;28;20387;-82
2022/05/15 05:17:42;;;;;;;7.10;5.70;;;15.50;99.90;;;;;;5052004;28;20381;-82
2022/05/15 05:20:27;;;;;;;9.47;5.93;;;15.60;99.90;;;;;;5034208;28;20381;-82
2022/05/15 05:23:12;;;;;;;5.97;5.23;;;15.70;99.90;;;;;;5049006;28;21036;-82
2022/05/15 05:25:57;;;;;;;6.30;5.23;;;15.70;99.90;;;;;;5046737;28;20386;-82
2022/05/15 05:28:42;;;;;;;11.53;5.83;;;15.80;99.90;;;;;;5061151;28;20893;-82
2022/05/15 05:31:46;;;;;;;10.03;5.50;;;15.80;99.90;;;;;;5062266;28;20405;-81
2022/05/15 05:34:31;;;;;;;9.30;5.40;;;15.90;99.90;;;;;;5006112;28;20435;-81
2022/05/15 05:37:17;;;;;;;8.27;5.63;;;15.90;99.90;;;;;;5005649;28;20411;-81
2022/05/15 05:40:01;;;;;;;7.10;5.60;;;15.90;99.90;;;;;;5019534;28;20392;-81
2022/05/15 05:42:46;;;;;;;9.70;6.10;;;16.00;99.90;;;;;;5018853;28;20786;-82
2022/05/15 05:45:30;;;;;;;14.60;6.30;;;16.10;99.90;;;;;;5020102;28;20379;-82
2022/05/15 05:48:15;;;;;;;6.57;5.00;;;16.10;99.90;;;;;;5020134;28;20507;-81
2022/05/15 05:50:59;;;;;;;11.03;5.77;;;16.10;99.90;;;;;;4992230;28;20411;-82
2022/05/15 05:53:44;;;;;;;10.80;5.43;;;16.10;99.90;;;;;;5019976;28;20446;-81
2022/05/15 05:56:28;;;;;;;12.90;5.20;;;16.10;99.90;;;;;;5020283;28;20536;-81
2022/05/15 05:59:13;;;;;;;12.60;5.67;;;16.10;99.90;;;;;;5020567;28;20454;-81
2022/05/15 06:01:57;;;;;;;12.73;5.27;;;16.20;99.90;;;;;;4987097;28;20416;-81
2022/05/15 06:04:44;;;;;;;6.80;5.03;;;16.20;99.90;;;;;;5031679;28;20515;-83
2022/05/15 06:07:30;;;;;;;8.63;5.27;;;16.20;99.90;;;;;;5062099;28;20585;-82
2022/05/15 06:10:15;;;;;;;8.00;5.57;;;16.30;99.90;;;;;;5047085;28;20464;-83
2022/05/15 06:13:00;;;;;;;8.97;6.63;;;16.30;99.90;;;;;;5033474;28;20382;-83
2022/05/15 06:15:46;;;;;;;7.97;5.07;;;16.40;99.90;;;;;;5048278;28;20528;-81
2022/05/15 06:18:30;;;;;;;6.07;5.40;;;16.40;99.90;;;;;;5068602;28;20473;-82
2022/05/15 06:21:15;;;;;;;11.20;6.60;;;16.50;99.90;;;;;;5057046;28;20470;-82
2022/05/15 06:23:59;;;;;;;10.20;5.43;;;16.60;99.90;;;;;;5054826;28;20449;-81
2022/05/15 06:26:44;;;;;;;13.80;5.80;;;16.60;99.90;;;;;;5070175;28;20757;-82
2022/05/15 06:29:29;;;;;;;6.93;5.10;;;16.70;99.90;;;;;;5052253;28;20465;-82
2022/05/15 06:32:15;;;;;;;9.30;5.87;;;16.80;99.90;;;;;;5053389;28;20397;-81
2022/05/15 06:35:00;;;;;;;5.73;5.13;;;16.90;99.90;;;;;;5068215;28;20510;-81
2022/05/15 06:37:45;;;;;;;6.97;5.60;;;17.00;99.90;;;;;;5054598;28;20401;-80
2022/05/15 06:40:30;;;;;;;7.97;5.27;;;17.10;99.90;;;;;;5069414;28;20382;-82
2022/05/15 06:43:14;;;;;;;8.20;5.23;;;17.10;99.90;;;;;;5049245;28;20504;-81
2022/05/15 06:45:59;;;;;;;8.77;5.33;;;17.20;99.90;;;;;;5063941;28;20433;-81
2022/05/15 06:48:43;;;;;;;6.33;5.27;;;17.20;99.90;;;;;;5048596;28;20394;-80
2022/05/15 06:51:28;;;;;;;9.63;5.60;;;17.20;99.90;;;;;;5062346;28;20390;-81
2022/05/15 06:54:12;;;;;;;7.77;5.30;;;17.30;99.90;;;;;;5063821;28;20456;-82
2022/05/15 06:59:57;;;;;;;7.27;5.40;;;17.30;99.90;;;;;;5067375;28;20488;-79
2022/05/15 07:02:42;;;;;;;9.40;5.43;;;17.40;99.90;;;;;;5052620;28;20393;-78
2022/05/15 07:05:30;;;;;;;5.30;4.80;;;17.50;99.90;;;;;;5068220;28;20394;-78
2022/05/15 07:08:15;;;;;;;7.57;5.17;;;17.60;99.90;;;;;;5053047;28;20788;-78
2022/05/15 07:11:00;;;;;;;5.67;4.83;;;17.60;99.90;;;;;;5039763;28;20418;-78
2022/05/15 07:13:44;;;;;;;12.30;5.63;;;17.60;99.90;;;;;;5052590;28;20476;-78
2022/05/15 07:16:29;;;;;;;5.17;4.70;;;17.80;99.90;;;;;;5054789;28;20454;-79
2022/05/15 07:19:13;;;;;;;13.33;5.80;;;17.80;99.90;;;;;;5068499;28;20409;-79
2022/05/15 07:21:58;;;;;;;6.37;4.03;;;17.90;99.90;;;;;;5067758;28;20390;-79
2022/05/15 07:24:43;;;;;;;11.73;4.97;;;18.00;99.90;;;;;;5066974;28;20491;-78
2022/05/15 07:27:27;;;;;;;9.17;4.87;;;18.00;99.90;;;;;;5052241;28;20445;-79
2022/05/15 07:30:13;;;;;;;6.63;5.20;;;18.20;99.90;;;;;;5067823;28;20897;-78
2022/05/15 07:32:57;;;;;;;6.97;4.60;;;18.30;99.90;;;;;;5067925;28;20402;-79
2022/05/15 07:35:42;;;;;;;9.20;5.27;;;18.40;99.90;;;;;;5065021;28;20429;-81
2022/05/15 07:38:27;;;;;;;11.43;4.40;;;18.40;99.90;;;;;;5047775;28;20393;-82
2022/05/15 07:41:14;;;;;;;7.30;4.47;;;18.50;99.90;;;;;;5046548;28;20413;-82
2022/05/15 07:43:58;;;;;;;7.43;3.60;;;18.60;99.90;;;;;;5048272;28;20445;-81
2022/05/15 07:46:44;;;;;;;13.70;5.90;;;18.70;99.90;;;;;;5046281;28;20394;-81
2022/05/15 07:49:29;;;;;;;4.30;3.80;;;18.70;99.90;;;;;;5046595;28;20429;-82
2022/05/15 07:52:14;;;;;;;6.33;3.90;;;18.80;99.90;;;;;;5039467;28;20914;-79
2022/05/15 07:54:59;;;;;;;5.93;4.87;;;18.80;99.90;;;;;;5071271;28;20473;-79
2022/05/15 07:57:43;;;;;;;5.70;4.13;;;18.80;99.90;;;;;;5054761;28;20390;-81
2022/05/15 08:00:28;;;;;;;8.97;3.93;;;19.00;99.90;;;;;;5064191;28;20420;-81
2022/05/15 08:03:13;;;;;;;7.27;4.13;;;19.20;99.90;;;;;;5064627;28;20517;-79
2022/05/15 08:09:05;;;;;;;11.43;4.40;;;19.30;99.90;;;;;;5021728;28;20914;-80
2022/05/15 08:11:50;;;;;;;8.27;3.93;;;19.40;99.90;;;;;;5026537;28;20398;-81
2022/05/15 08:14:35;;;;;;;8.20;4.30;;;19.50;99.90;;;;;;5042876;28;20459;-81
2022/05/15 08:17:19;;;;;;;8.90;3.60;;;19.60;99.90;;;;;;5022881;28;20229;-82
2022/05/15 08:26:06;;;;;;;6.43;4.27;;;19.90;99.90;;;;;;5043009;28;20466;-81
2022/05/15 08:28:51;;;;;;;8.87;4.57;;;19.90;99.90;;;;;;5043957;28;20394;-81
2022/05/15 08:31:35;;;;;;;5.23;4.73;;;20.00;99.90;;;;;;5042945;28;20379;-81
2022/05/15 08:34:20;;;;;;;10.27;4.23;;;20.00;99.90;;;;;;5043509;28;20391;-81
2022/05/15 08:37:05;;;;;;;4.60;4.20;;;20.10;99.90;;;;;;5028403;28;20386;-81
2022/05/15 08:39:50;;;;;;;8.13;4.10;;;20.20;99.90;;;;;;5044000;28;20434;-81
2022/05/15 08:42:58;;;;;;;4.03;3.70;;;20.20;99.90;;;;;;5043833;28;20438;-81
2022/05/15 08:45:56;;;;;;;7.17;3.80;;;20.30;99.90;;;;;;5042595;28;20390;-81
2022/05/15 08:48:40;;;;;;;4.87;4.00;;;20.50;99.90;;;;;;5042461;28;20907;-81
2022/05/15 08:51:29;;;;;;;6.93;4.43;;;20.50;99.90;;;;;;5046907;28;20394;-77
2022/05/15 08:54:13;;;;;;;6.40;4.10;;;20.70;99.90;;;;;;5045681;28;20427;-80
2022/05/15 08:56:59;;;;;;;5.15;4.00;;;20.70;99.90;;;;;;5041237;28;20424;-80
2022/05/15 08:59:53;;;;;;;12.60;4.37;;;20.80;99.90;;;;;;5007266;28;20272;-81
2022/05/15 09:02:40;;;;;;;7.77;4.53;;;20.90;99.90;;;;;;5019988;28;20396;-82
2022/05/15 09:05:29;;;;;;;6.03;3.67;;;21.00;99.90;;;;;;5020817;28;20452;-81
2022/05/15 09:08:49;;;;;;;5.03;3.83;;;21.10;99.90;;;;;;4980664;28;20521;-81
2022/05/15 09:12:01;;;;;;;4.30;3.50;;;21.00;99.90;;;;;;4967918;28;20460;-81
2022/05/15 09:15:11;;;;;;;5.57;5.07;;;20.70;99.90;;;;;;4980764;28;20425;-81
2022/05/15 09:18:02;;;;;;;7.90;3.47;;;21.10;99.90;;;;;;4971193;28;20465;-82
2022/05/15 09:21:00;;;;;;;9.47;4.80;;;21.40;99.90;;;;;;4954929;28;20413;-82
2022/05/15 09:23:49;;;;;;;4.93;3.70;;;21.50;99.90;;;;;;4981203;28;20496;-82
2022/05/15 09:26:44;;;;;;;3.53;3.23;;;21.50;99.90;;;;;;4981530;28;20441;-82
2022/05/15 09:29:33;;;;;;;6.80;3.67;;;21.80;99.90;;;;;;4971827;28;20486;-80
2022/05/15 09:32:39;;;;;;;4.47;3.57;;;21.90;99.90;;;;;;5020599;28;20887;-81
2022/05/15 09:35:35;;;;;;;7.57;3.47;;;21.90;99.90;;;;;;5007469;28;20410;-80
2022/05/15 09:38:29;;;;;;;3.23;3.03;;;22.20;99.90;;;;;;5018117;28;20417;-82
2022/05/15 09:44:35;;;;;;;4.37;3.53;;;22.50;99.90;;;;;;5075199;28;20472;-80
2022/05/15 09:47:28;;;;;;;4.20;3.80;;;22.50;99.90;;;;;;5076001;28;20463;-82
2022/05/15 09:50:42;;;;;;;4.37;3.67;;;22.50;99.90;;;;;;5049731;28;20395;-80
2022/05/15 09:53:38;;;;;;;3.93;3.23;;;22.80;99.90;;;;;;5072950;28;20417;-81
2022/05/15 09:56:30;;;;;;;3.67;3.00;;;23.00;99.90;;;;;;5061354;28;20533;-81
2022/05/15 09:59:14;;;;;;;4.37;2.90;;;22.60;99.90;;;;;;5062785;28;20463;-79
2022/05/15 10:01:59;;;;;;;4.67;3.43;;;22.70;99.90;;;;;;5060032;28;20381;-80
2022/05/15 10:04:49;;;;;;;3.37;3.07;;;23.00;99.90;;;;;;5047256;28;20548;-81
2022/05/15 10:07:40;;;;;;;8.03;3.20;;;23.00;99.90;;;;;;5055254;28;20548;-82
2022/05/15 10:10:34;;;;;;;5.43;2.70;;;23.20;99.90;;;;;;5028770;28;20456;-81
2022/05/15 10:13:30;;;;;;;4.07;3.00;;;23.50;99.90;;;;;;5028372;28;20446;-81
2022/05/15 10:16:25;;;;;;;4.30;3.90;;;22.90;99.80;;;;;;5014478;28;20390;-80
2022/05/15 10:19:24;;;;;;;4.33;3.03;;;22.70;99.90;;;;;;5027769;28;20456;-79
2022/05/15 10:22:36;;;;;;;4.40;3.17;;;22.70;98.80;;;;;;4986608;28;20569;-80
2022/05/15 10:25:33;;;;;;;4.17;2.53;;;22.90;98.30;;;;;;4999266;28;20420;-81
2022/05/15 10:28:42;;;;;;;5.20;3.07;;;23.20;97.10;;;;;;5013799;28;20750;-82
2022/05/15 10:31:31;;;;;;;4.20;2.57;;;23.20;96.10;;;;;;4999495;28;20424;-82
2022/05/15 10:34:23;;;;;;;3.20;2.83;;;22.90;95.90;;;;;;4999925;28;20463;-82
2022/05/15 10:37:29;;;;;;;2.73;2.53;;;23.80;96.20;;;;;;4999228;28;20404;-81
2022/05/15 10:40:33;;;;;;;2.90;2.70;;;24.00;94.50;;;;;;5012105;28;20408;-81
2022/05/15 10:43:37;;;;;;;3.60;3.30;;;24.50;91.90;;;;;;5000352;28;20470;-81
2022/05/15 10:46:42;;;;;;;7.60;3.50;;;24.50;93.90;;;;;;5018534;28;20432;-83
2022/05/15 10:49:59;;;;;;;3.20;2.87;;;24.20;93.50;;;;;;4994218;28;20484;-78
2022/05/15 10:59:44;;;;;;;4.93;2.50;;;24.20;91.20;;;;;;5005353;28;20535;-80
2022/05/15 11:02:59;;;;;;;2.97;2.57;;;24.20;85.70;;;;;;5013912;28;20413;-78
2022/05/15 11:06:05;;;;;;;2.93;2.70;;;24.10;84.80;;;;;;5013185;28;20463;-83
2022/05/15 11:09:01;;;;;;;5.77;2.80;;;23.80;84.50;;;;;;5015135;28;20510;-83
2022/05/15 11:12:00;;;;;;;3.20;2.80;;;23.70;84.10;;;;;;5004832;28;20828;-82
2022/05/15 11:15:00;;;;;;;4.33;2.50;;;24.20;82.40;;;;;;5019747;28;20507;-83
2022/05/15 11:18:08;;;;;;;3.97;2.70;;;24.40;82.40;;;;;;5003416;28;20407;-80
2022/05/15 11:21:01;;;;;;;7.43;3.60;;;25.50;88.60;;;;;;5010630;28;20411;-82
2022/05/15 11:23:53;;;;;;;2.43;2.23;;;25.80;81.20;;;;;;5035284;28;20453;-82
2022/05/15 11:26:43;;;;;;;5.23;2.40;;;25.70;79.60;;;;;;5059939;28;20432;-83
2022/05/15 11:29:30;;;;;;;2.90;2.53;;;26.20;78.10;;;;;;5064917;28;20396;-80
2022/05/15 11:32:46;;;;;;;8.43;3.30;;;26.40;79.70;;;;;;5067752;28;20388;-80
2022/05/15 11:35:35;;;;;;;4.13;2.67;;;26.10;75.30;;;;;;5069222;28;20432;-82
2022/05/15 11:38:28;;;;;;;6.80;3.50;;;26.70;74.90;;;;;;5064202;28;20381;-82
2022/05/15 11:41:29;;;;;;;3.17;2.87;;;25.40;74.60;;;;;;5047956;28;20404;-82
2022/05/15 11:44:37;;;;;;;4.63;3.20;;;25.50;77.80;;;;;;5062901;28;20448;-84
2022/05/15 11:47:29;;;;;;;7.37;2.70;;;25.60;72.90;;;;;;5061997;28;20392;-82
2022/05/15 11:50:30;;;;;;;3.40;2.63;;;25.50;74.40;;;;;;5061940;28;20464;-82
2022/05/15 11:53:26;;;;;;;14.77;3.40;;;25.80;75.30;;;;;;5061181;28;20523;-83
2022/05/15 11:56:25;;;;;;;4.80;3.90;;;26.80;74.20;;;;;;5040654;28;20417;-83
2022/05/15 11:59:32;;;;;;;3.40;3.10;;;27.40;73.70;;;;;;5046382;28;20412;-81
2022/05/15 12:02:51;;;;;;;6.90;4.03;;;26.50;69.00;;;;;;5050959;28;20497;-82
2022/05/15 12:06:00;;;;;;;6.63;3.73;;;26.70;70.40;;;;;;5035377;28;20448;-82
2022/05/15 12:08:52;;;;;;;3.23;2.90;;;26.50;70.00;;;;;;5047193;28;20468;-80
2022/05/15 12:11:37;;;;;;;4.13;3.10;;;26.70;67.70;;;;;;5048824;28;20448;-83
2022/05/15 12:14:35;;;;;;;3.53;2.87;;;26.40;68.80;;;;;;5062916;28;20449;-81
2022/05/15 12:17:29;;;;;;;3.30;2.97;;;27.30;68.60;;;;;;5063547;28;20888;-80
2022/05/15 12:20:18;;;;;;;3.10;2.77;;;26.90;67.50;;;;;;5034332;28;20417;-81
2022/05/15 12:23:13;;;;;;;3.87;2.60;;;28.10;67.80;;;;;;5064590;28;20461;-81
2022/05/15 12:26:18;;;;;;;8.90;2.95;;;28.80;69.20;;;;;;5063274;28;20217;-80
2022/05/15 12:29:28;;;;;;;3.50;2.70;;;29.80;64.90;;;;;;5035820;28;20403;-82
2022/05/15 12:32:19;;;;;;;9.13;3.15;;;28.20;63.00;;;;;;5064390;28;20278;-81
2022/05/15 12:35:10;;;;;;;4.07;2.58;;;27.90;63.00;;;;;;5064767;28;20166;-80
2022/05/15 12:38:01;;;;;;;3.53;2.63;;;28.80;63.00;;;;;;5034577;28;20174;-83
2022/05/15 12:41:07;;;;;;;2.80;2.60;;;27.80;63.60;;;;;;5064255;28;20317;-82
2022/05/15 12:43:53;;;;;;;5.00;3.13;;;29.40;61.00;;;;;;5059850;28;20656;-82
2022/05/15 12:46:53;;;;;;;5.00;3.40;;;27.80;62.00;;;;;;5061190;28;20146;-79
2022/05/15 12:49:43;;;;;;;3.55;2.92;;;28.90;62.70;;;;;;5049397;28;20174;-81
2022/05/15 12:52:31;;;;;;;4.68;2.67;;;30.50;57.70;;;;;;5076817;28;20186;-81
2022/05/15 12:55:29;;;;;;;3.22;2.92;;;30.60;57.00;;;;;;5061490;28;20226;-79
2022/05/15 12:58:13;;;;;;;3.95;3.03;;;29.90;56.50;;;;;;5061748;28;20175;-80
2022/05/15 13:01:00;;;;;;;5.50;3.60;;;29.80;58.00;;;;;;5061354;28;20158;-81
2022/05/15 13:03:53;;;;;;;4.60;2.95;;;29.00;57.20;;;;;;5076006;28;20255;-79
2022/05/15 13:06:48;;;;;;;2.80;2.60;;;29.00;58.60;;;;;;5063278;28;20158;-80
2022/05/15 13:09:52;;;;;;;4.40;3.50;;;28.50;58.40;;;;;;5019839;28;20264;-80
2022/05/15 13:13:12;;;;;;;3.13;2.83;;;28.20;59.80;;;;;;5034498;28;20250;-80
2022/05/15 13:15:58;;;;;;;3.38;3.08;;;27.60;59.00;;;;;;4976635;28;20246;-81
2022/05/15 13:18:47;;;;;;;3.50;2.80;;;28.40;58.90;;;;;;4975333;29;20174;-79
2022/05/15 13:21:41;;;;;;;4.13;2.72;;;28.60;59.50;;;;;;4956810;29;20189;-80
2022/05/15 13:24:27;;;;;;;5.03;2.40;;;29.00;57.90;;;;;;4972493;29;20231;-82
2022/05/15 13:27:12;;;;;;;3.97;3.50;;;29.60;55.90;;;;;;4972404;29;20197;-82
2022/05/15 13:29:58;;;;;;;3.22;2.70;;;29.80;55.50;;;;;;4971496;28;20194;-82
2022/05/15 13:32:44;;;;;;;3.47;3.13;;;29.40;55.90;;;;;;4971162;29;20669;-81
2022/05/15 13:35:34;;;;;;;3.45;3.00;;;28.70;57.60;;;;;;4971258;28;20193;-82
2022/05/15 13:44:45;;;;;;;3.22;2.65;;;29.20;57.20;;;;;;5010431;28;20209;-81
2022/05/15 13:47:30;;;;;;;4.80;2.97;;;29.60;58.60;;;;;;5038411;28;20226;-84
2022/05/15 13:50:50;;;;;;;2.95;2.75;;;30.40;55.80;;;;;;5052158;28;20179;-82
2022/05/15 13:53:40;;;;;;;4.43;2.78;;;30.60;55.30;;;;;;5051412;28;20171;-81
2022/05/15 13:56:27;;;;;;;3.92;2.78;;;30.70;56.10;;;;;;5036390;28;20207;-81
2022/05/15 13:59:34;;;;;;;6.05;2.97;;;30.40;57.30;;;;;;5036515;28;20486;-80
2022/05/15 14:02:27;;;;;;;3.28;2.70;;;28.80;56.50;;;;;;5009096;28;20188;-81
2022/05/15 14:05:16;;;;;;;3.65;3.10;;;27.80;58.00;;;;;;4995425;28;20300;-82
2022/05/15 14:08:20;;;;;;;4.03;3.17;;;28.30;58.80;;;;;;5008975;28;20689;-82
2022/05/15 14:11:05;;;;;;;3.08;2.78;;;29.70;57.90;;;;;;5009935;28;20217;-81
2022/05/15 14:13:53;;;;;;;7.55;2.97;;;30.40;55.90;;;;;;5009801;28;20187;-80
2022/05/15 14:16:37;;;;;;;4.45;2.85;;;28.80;55.80;;;;;;5009191;28;20188;-80
2022/05/15 14:19:22;;;;;;;3.58;3.20;;;28.70;56.40;;;;;;5009528;28;20289;-83
2022/05/15 14:22:07;;;;;;;2.13;1.98;;;28.10;58.30;;;;;;5011851;28;20179;-80
2022/05/15 14:24:51;;;;;;;6.03;2.70;;;29.10;55.80;;;;;;5012960;28;20509;-82
2022/05/15 14:27:37;;;;;;;3.05;2.75;;;27.50;55.60;;;;;;5009732;28;20297;-80
2022/05/15 14:30:22;;;;;;;2.67;2.47;;;28.40;56.00;;;;;;5007578;28;20173;-79
2022/05/15 14:33:08;;;;;;;6.18;3.13;;;28.60;55.30;;;;;;5029061;28;20242;-82
2022/05/15 14:36:09;;;;;;;2.58;2.38;;;28.70;56.30;;;;;;5019893;28;20179;-80
2022/05/15 14:38:56;;;;;;;4.88;3.25;;;28.60;57.00;;;;;;5030243;28;20163;-79
2022/05/15 14:41:44;;;;;;;5.75;2.50;;;29.50;55.50;;;;;;5031254;28;20171;-80
2022/05/15 14:44:28;;;;;;;3.42;3.13;;;28.60;56.80;;;;;;5016249;28;20245;-80
2022/05/15 14:47:19;;;;;;;3.92;2.83;;;29.10;58.00;;;;;;5030076;28;20214;-81
2022/05/15 14:50:06;;;;;;;3.05;2.85;;;29.60;57.50;;;;;;5045434;28;20159;-81
2022/05/15 14:52:53;;;;;;;4.38;3.95;;;29.60;58.40;;;;;;5045382;28;20661;-80
2022/05/15 14:59:00;;;;;;;6.47;5.80;;;27.30;57.40;;;;;;5035221;28;20195;-85
2022/05/15 15:01:44;;;;;;;2.90;2.70;;;27.80;57.80;;;;;;5038652;28;20445;-84
2022/05/15 15:04:29;;;;;;;3.53;2.60;;;27.70;59.70;;;;;;5056530;28;20446;-84
2022/05/15 15:07:14;;;;;;;3.37;3.07;;;27.50;59.10;;;;;;5055567;28;20449;-83
2022/05/15 15:09:58;;;;;;;4.30;2.90;;;27.50;56.90;;;;;;5049103;28;20398;-84
2022/05/15 15:12:44;;;;;;;5.13;3.30;;;27.80;57.30;;;;;;5057865;28;20403;-84
2022/05/15 15:15:32;;;;;;;3.83;2.90;;;28.70;57.50;;;;;;5042741;28;20391;-85